sensor_id;sensor_type;location;lat;lon;timestamp;P1;durP1;ratioP1;P2;durP2;ratioP2
77876;SDS011;67251;50.844;7.978;2023-05-14T00:00:38;9.45;;;5.43;;
77876;SDS011;67251;50.844;7.978;2023-05-14T00:03:04;9.82;;;5.28;;
77876;SDS011;67251;50.844;7.978;2023-05-14T00:05:29;9.27;;;5.03;;
77876;SDS011;67251;50.844;7.978;2023-05-14T00:07:55;9.63;;;5.05;;
77876;SDS011;67251;50.844;7.978;2023-05-14T00:10:20;10.93;;;5.45;;
77876;SDS011;67251;50.844;7.978;2023-05-14T00:12:46;11.15;;;5.47;;
77876;SDS011;67251;50.844;7.978;2023-05-14T00:15:12;13.55;;;5.85;;
77876;SDS011;67251;50.844;7.978;2023-05-14T00:17:37;9.75;;;5.68;;
77876;SDS011;67251;50.844;7.978;2023-05-14T00:20:03;10.02;;;5.15;;
77876;SDS011;67251;50.844;7.978;2023-05-14T00:24:58;10.00;;;4.95;;
77876;SDS011;67251;50.844;7.978;2023-05-14T00:27:24;9.00;;;5.25;;
77876;SDS011;67251;50.844;7.978;2023-05-14T00:29:50;10.07;;;5.72;;
77876;SDS011;67251;50.844;7.978;2023-05-14T00:32:15;9.73;;;5.60;;
77876;SDS011;67251;50.844;7.978;2023-05-14T00:34:40;10.68;;;5.85;;
77876;SDS011;67251;50.844;7.978;2023-05-14T00:37:06;9.90;;;5.75;;
77876;SDS011;67251;50.844;7.978;2023-05-14T00:39:32;9.80;;;5.13;;
77876;SDS011;67251;50.844;7.978;2023-05-14T00:41:58;9.38;;;5.57;;
77876;SDS011;67251;50.844;7.978;2023-05-14T00:44:24;8.73;;;5.07;;
77876;SDS011;67251;50.844;7.978;2023-05-14T00:46:50;10.15;;;5.60;;
77876;SDS011;67251;50.844;7.978;2023-05-14T00:49:16;11.52;;;5.55;;
77876;SDS011;67251;50.844;7.978;2023-05-14T00:51:42;12.02;;;5.75;;
77876;SDS011;67251;50.844;7.978;2023-05-14T00:54:10;11.25;;;5.35;;
77876;SDS011;67251;50.844;7.978;2023-05-14T00:56:38;11.80;;;6.10;;
77876;SDS011;67251;50.844;7.978;2023-05-14T00:59:03;9.20;;;5.15;;
77876;SDS011;67251;50.844;7.978;2023-05-14T01:01:29;8.65;;;5.05;;
77876;SDS011;67251;50.844;7.978;2023-05-14T01:03:55;9.48;;;5.78;;
77876;SDS011;67251;50.844;7.978;2023-05-14T01:06:27;11.13;;;5.57;;
77876;SDS011;67251;50.844;7.978;2023-05-14T01:09:24;11.00;;;5.63;;
77876;SDS011;67251;50.844;7.978;2023-05-14T01:11:59;10.45;;;5.65;;
77876;SDS011;67251;50.844;7.978;2023-05-14T01:17:16;10.43;;;5.07;;
77876;SDS011;67251;50.844;7.978;2023-05-14T01:19:45;10.70;;;5.63;;
77876;SDS011;67251;50.844;7.978;2023-05-14T01:22:12;12.48;;;6.07;;
77876;SDS011;67251;50.844;7.978;2023-05-14T01:24:39;10.68;;;5.07;;
77876;SDS011;67251;50.844;7.978;2023-05-14T01:29:58;11.98;;;5.88;;
77876;SDS011;67251;50.844;7.978;2023-05-14T01:32:32;11.35;;;5.75;;
77876;SDS011;67251;50.844;7.978;2023-05-14T01:34:57;10.05;;;5.65;;
77876;SDS011;67251;50.844;7.978;2023-05-14T01:37:25;9.52;;;5.50;;
77876;SDS011;67251;50.844;7.978;2023-05-14T01:39:54;10.25;;;5.03;;
77876;SDS011;67251;50.844;7.978;2023-05-14T01:42:20;9.85;;;5.45;;
77876;SDS011;67251;50.844;7.978;2023-05-14T01:44:46;10.90;;;4.88;;
77876;SDS011;67251;50.844;7.978;2023-05-14T01:47:12;9.20;;;5.32;;
77876;SDS011;67251;50.844;7.978;2023-05-14T01:53:12;9.63;;;5.43;;
77876;SDS011;67251;50.844;7.978;2023-05-14T01:55:38;9.73;;;5.35;;
77876;SDS011;67251;50.844;7.978;2023-05-14T01:58:03;10.65;;;6.22;;
77876;SDS011;67251;50.844;7.978;2023-05-14T02:00:28;10.70;;;6.38;;
77876;SDS011;67251;50.844;7.978;2023-05-14T02:02:54;10.00;;;5.72;;
77876;SDS011;67251;50.844;7.978;2023-05-14T02:05:20;11.05;;;5.50;;
77876;SDS011;67251;50.844;7.978;2023-05-14T02:07:45;12.60;;;5.60;;
77876;SDS011;67251;50.844;7.978;2023-05-14T02:10:10;10.52;;;6.00;;
77876;SDS011;67251;50.844;7.978;2023-05-14T02:12:36;93.60;;;24.63;;
77876;SDS011;67251;50.844;7.978;2023-05-14T02:15:02;51.03;;;15.02;;
77876;SDS011;67251;50.844;7.978;2023-05-14T02:17:28;15.68;;;7.65;;
77876;SDS011;67251;50.844;7.978;2023-05-14T02:19:53;11.85;;;6.38;;
77876;SDS011;67251;50.844;7.978;2023-05-14T02:22:18;9.77;;;5.35;;
77876;SDS011;67251;50.844;7.978;2023-05-14T02:24:44;10.85;;;5.50;;
77876;SDS011;67251;50.844;7.978;2023-05-14T02:27:09;9.00;;;5.38;;
77876;SDS011;67251;50.844;7.978;2023-05-14T02:29:36;10.02;;;5.25;;
77876;SDS011;67251;50.844;7.978;2023-05-14T02:32:02;10.10;;;4.90;;
77876;SDS011;67251;50.844;7.978;2023-05-14T02:34:27;10.85;;;5.47;;
77876;SDS011;67251;50.844;7.978;2023-05-14T02:36:53;11.00;;;5.55;;
77876;SDS011;67251;50.844;7.978;2023-05-14T02:39:18;10.32;;;5.65;;
77876;SDS011;67251;50.844;7.978;2023-05-14T02:41:44;12.10;;;6.07;;
77876;SDS011;67251;50.844;7.978;2023-05-14T02:44:09;9.75;;;5.55;;
77876;SDS011;67251;50.844;7.978;2023-05-14T02:46:34;14.38;;;6.72;;
77876;SDS011;67251;50.844;7.978;2023-05-14T02:49:00;13.68;;;7.55;;
77876;SDS011;67251;50.844;7.978;2023-05-14T02:51:26;14.15;;;6.47;;
77876;SDS011;67251;50.844;7.978;2023-05-14T02:53:52;13.90;;;5.93;;
77876;SDS011;67251;50.844;7.978;2023-05-14T02:56:17;12.07;;;5.75;;
77876;SDS011;67251;50.844;7.978;2023-05-14T02:58:42;13.65;;;6.07;;
77876;SDS011;67251;50.844;7.978;2023-05-14T03:01:08;12.63;;;5.95;;
77876;SDS011;67251;50.844;7.978;2023-05-14T03:03:33;14.05;;;5.93;;
77876;SDS011;67251;50.844;7.978;2023-05-14T03:05:59;11.05;;;5.82;;
77876;SDS011;67251;50.844;7.978;2023-05-14T03:08:25;9.85;;;5.50;;
77876;SDS011;67251;50.844;7.978;2023-05-14T03:10:50;8.63;;;4.72;;
77876;SDS011;67251;50.844;7.978;2023-05-14T03:13:16;9.38;;;5.78;;
77876;SDS011;67251;50.844;7.978;2023-05-14T03:15:43;10.98;;;5.13;;
77876;SDS011;67251;50.844;7.978;2023-05-14T03:18:09;8.85;;;4.82;;
77876;SDS011;67251;50.844;7.978;2023-05-14T03:20:34;9.35;;;5.25;;
77876;SDS011;67251;50.844;7.978;2023-05-14T03:23:00;9.05;;;4.93;;
77876;SDS011;67251;50.844;7.978;2023-05-14T03:25:25;8.88;;;5.18;;
77876;SDS011;67251;50.844;7.978;2023-05-14T03:27:51;11.13;;;5.55;;
77876;SDS011;67251;50.844;7.978;2023-05-14T03:30:16;10.23;;;5.15;;
77876;SDS011;67251;50.844;7.978;2023-05-14T03:32:42;10.13;;;5.20;;
77876;SDS011;67251;50.844;7.978;2023-05-14T03:35:07;8.48;;;4.80;;
77876;SDS011;67251;50.844;7.978;2023-05-14T03:37:33;9.95;;;4.97;;
77876;SDS011;67251;50.844;7.978;2023-05-14T03:39:58;11.38;;;5.25;;
77876;SDS011;67251;50.844;7.978;2023-05-14T03:42:23;9.85;;;5.15;;
77876;SDS011;67251;50.844;7.978;2023-05-14T03:44:49;10.55;;;5.43;;
77876;SDS011;67251;50.844;7.978;2023-05-14T03:47:14;10.13;;;5.63;;
77876;SDS011;67251;50.844;7.978;2023-05-14T03:49:40;11.68;;;6.22;;
77876;SDS011;67251;50.844;7.978;2023-05-14T03:52:05;11.90;;;5.43;;
77876;SDS011;67251;50.844;7.978;2023-05-14T03:54:30;10.57;;;5.15;;
77876;SDS011;67251;50.844;7.978;2023-05-14T03:56:56;12.52;;;5.95;;
77876;SDS011;67251;50.844;7.978;2023-05-14T03:59:21;10.75;;;6.18;;
77876;SDS011;67251;50.844;7.978;2023-05-14T04:01:46;11.25;;;5.65;;
77876;SDS011;67251;50.844;7.978;2023-05-14T04:04:12;10.93;;;5.88;;
77876;SDS011;67251;50.844;7.978;2023-05-14T04:06:37;10.38;;;5.80;;
77876;SDS011;67251;50.844;7.978;2023-05-14T04:09:03;11.95;;;5.57;;
77876;SDS011;67251;50.844;7.978;2023-05-14T04:11:28;9.55;;;5.22;;
77876;SDS011;67251;50.844;7.978;2023-05-14T04:13:53;9.35;;;5.05;;
77876;SDS011;67251;50.844;7.978;2023-05-14T04:16:19;11.18;;;5.60;;
77876;SDS011;67251;50.844;7.978;2023-05-14T04:18:45;10.43;;;6.05;;
77876;SDS011;67251;50.844;7.978;2023-05-14T04:21:10;10.32;;;5.63;;
77876;SDS011;67251;50.844;7.978;2023-05-14T04:23:36;10.45;;;5.82;;
77876;SDS011;67251;50.844;7.978;2023-05-14T04:26:01;10.25;;;4.85;;
77876;SDS011;67251;50.844;7.978;2023-05-14T04:28:27;15.88;;;6.45;;
77876;SDS011;67251;50.844;7.978;2023-05-14T04:30:53;10.45;;;5.55;;
77876;SDS011;67251;50.844;7.978;2023-05-14T04:33:18;11.05;;;5.90;;
77876;SDS011;67251;50.844;7.978;2023-05-14T04:35:43;11.98;;;5.88;;
77876;SDS011;67251;50.844;7.978;2023-05-14T04:38:10;10.25;;;5.22;;
77876;SDS011;67251;50.844;7.978;2023-05-14T04:40:35;10.18;;;5.82;;
77876;SDS011;67251;50.844;7.978;2023-05-14T04:43:01;14.43;;;6.07;;
77876;SDS011;67251;50.844;7.978;2023-05-14T04:45:26;10.75;;;5.43;;
77876;SDS011;67251;50.844;7.978;2023-05-14T04:47:52;12.07;;;6.13;;
77876;SDS011;67251;50.844;7.978;2023-05-14T04:50:17;11.98;;;6.22;;
77876;SDS011;67251;50.844;7.978;2023-05-14T04:52:42;12.25;;;5.60;;
77876;SDS011;67251;50.844;7.978;2023-05-14T04:55:08;12.18;;;5.80;;
77876;SDS011;67251;50.844;7.978;2023-05-14T04:57:34;11.30;;;5.70;;
77876;SDS011;67251;50.844;7.978;2023-05-14T04:59:59;10.18;;;5.15;;
77876;SDS011;67251;50.844;7.978;2023-05-14T05:02:24;9.43;;;5.75;;
77876;SDS011;67251;50.844;7.978;2023-05-14T05:04:50;10.93;;;5.75;;
77876;SDS011;67251;50.844;7.978;2023-05-14T05:07:15;13.40;;;6.65;;
77876;SDS011;67251;50.844;7.978;2023-05-14T05:09:41;10.93;;;5.72;;
77876;SDS011;67251;50.844;7.978;2023-05-14T05:12:07;12.23;;;6.18;;
77876;SDS011;67251;50.844;7.978;2023-05-14T05:14:33;12.30;;;6.25;;
77876;SDS011;67251;50.844;7.978;2023-05-14T05:16:58;11.07;;;6.22;;
77876;SDS011;67251;50.844;7.978;2023-05-14T05:19:24;13.98;;;6.65;;
77876;SDS011;67251;50.844;7.978;2023-05-14T05:21:49;10.98;;;5.88;;
77876;SDS011;67251;50.844;7.978;2023-05-14T05:24:15;13.00;;;6.97;;
77876;SDS011;67251;50.844;7.978;2023-05-14T05:26:40;10.60;;;6.35;;
77876;SDS011;67251;50.844;7.978;2023-05-14T05:29:06;10.48;;;6.07;;
77876;SDS011;67251;50.844;7.978;2023-05-14T05:31:31;12.02;;;5.95;;
77876;SDS011;67251;50.844;7.978;2023-05-14T05:34:00;11.65;;;5.93;;
77876;SDS011;67251;50.844;7.978;2023-05-14T05:36:25;14.48;;;6.53;;
77876;SDS011;67251;50.844;7.978;2023-05-14T05:38:51;11.07;;;6.95;;
77876;SDS011;67251;50.844;7.978;2023-05-14T05:41:17;13.50;;;7.15;;
77876;SDS011;67251;50.844;7.978;2023-05-14T05:43:42;14.02;;;6.93;;
77876;SDS011;67251;50.844;7.978;2023-05-14T05:46:07;12.98;;;7.38;;
77876;SDS011;67251;50.844;7.978;2023-05-14T05:48:33;10.80;;;6.18;;
77876;SDS011;67251;50.844;7.978;2023-05-14T05:50:58;11.93;;;6.15;;
77876;SDS011;67251;50.844;7.978;2023-05-14T05:53:24;11.50;;;7.15;;
77876;SDS011;67251;50.844;7.978;2023-05-14T05:55:49;11.90;;;6.90;;
77876;SDS011;67251;50.844;7.978;2023-05-14T05:58:16;12.38;;;7.18;;
77876;SDS011;67251;50.844;7.978;2023-05-14T06:00:42;11.60;;;6.80;;
77876;SDS011;67251;50.844;7.978;2023-05-14T06:03:07;13.32;;;6.72;;
77876;SDS011;67251;50.844;7.978;2023-05-14T06:05:33;12.77;;;7.00;;
77876;SDS011;67251;50.844;7.978;2023-05-14T06:07:58;14.07;;;7.13;;
77876;SDS011;67251;50.844;7.978;2023-05-14T06:10:23;13.63;;;7.20;;
77876;SDS011;67251;50.844;7.978;2023-05-14T06:12:49;13.35;;;7.30;;
77876;SDS011;67251;50.844;7.978;2023-05-14T06:15:14;12.57;;;6.80;;
77876;SDS011;67251;50.844;7.978;2023-05-14T06:17:40;12.80;;;6.93;;
77876;SDS011;67251;50.844;7.978;2023-05-14T06:20:05;13.20;;;7.57;;
77876;SDS011;67251;50.844;7.978;2023-05-14T06:22:33;13.77;;;7.60;;
77876;SDS011;67251;50.844;7.978;2023-05-14T06:24:59;13.77;;;7.10;;
77876;SDS011;67251;50.844;7.978;2023-05-14T06:27:24;12.02;;;6.82;;
77876;SDS011;67251;50.844;7.978;2023-05-14T06:29:49;12.20;;;6.78;;
77876;SDS011;67251;50.844;7.978;2023-05-14T06:32:15;11.85;;;6.00;;
77876;SDS011;67251;50.844;7.978;2023-05-14T06:34:41;9.13;;;5.50;;
77876;SDS011;67251;50.844;7.978;2023-05-14T06:37:07;8.73;;;5.45;;
77876;SDS011;67251;50.844;7.978;2023-05-14T06:39:34;9.10;;;5.45;;
77876;SDS011;67251;50.844;7.978;2023-05-14T06:41:59;10.23;;;5.15;;
77876;SDS011;67251;50.844;7.978;2023-05-14T06:44:25;9.88;;;5.40;;
77876;SDS011;67251;50.844;7.978;2023-05-14T06:46:50;8.93;;;5.38;;
77876;SDS011;67251;50.844;7.978;2023-05-14T06:49:16;8.95;;;5.05;;
77876;SDS011;67251;50.844;7.978;2023-05-14T06:51:41;8.77;;;5.32;;
77876;SDS011;67251;50.844;7.978;2023-05-14T06:54:07;9.95;;;5.22;;
77876;SDS011;67251;50.844;7.978;2023-05-14T06:56:32;8.23;;;5.10;;
77876;SDS011;67251;50.844;7.978;2023-05-14T06:58:57;7.30;;;4.43;;
77876;SDS011;67251;50.844;7.978;2023-05-14T07:01:22;8.20;;;4.38;;
77876;SDS011;67251;50.844;7.978;2023-05-14T07:03:48;10.13;;;4.78;;
77876;SDS011;67251;50.844;7.978;2023-05-14T07:06:13;7.82;;;4.35;;
77876;SDS011;67251;50.844;7.978;2023-05-14T07:08:39;8.48;;;4.40;;
77876;SDS011;67251;50.844;7.978;2023-05-14T07:11:04;8.27;;;4.70;;
77876;SDS011;67251;50.844;7.978;2023-05-14T07:13:30;7.90;;;4.20;;
77876;SDS011;67251;50.844;7.978;2023-05-14T07:15:55;7.05;;;3.90;;
77876;SDS011;67251;50.844;7.978;2023-05-14T07:18:22;6.50;;;3.78;;
77876;SDS011;67251;50.844;7.978;2023-05-14T07:20:48;8.85;;;4.03;;
77876;SDS011;67251;50.844;7.978;2023-05-14T07:23:13;6.80;;;3.88;;
77876;SDS011;67251;50.844;7.978;2023-05-14T07:25:38;6.15;;;3.40;;
77876;SDS011;67251;50.844;7.978;2023-05-14T07:28:04;4.68;;;3.08;;
77876;SDS011;67251;50.844;7.978;2023-05-14T07:30:29;5.75;;;3.10;;
77876;SDS011;67251;50.844;7.978;2023-05-14T07:32:55;5.05;;;3.13;;
77876;SDS011;67251;50.844;7.978;2023-05-14T07:35:20;6.32;;;3.60;;
77876;SDS011;67251;50.844;7.978;2023-05-14T07:37:46;4.75;;;2.80;;
77876;SDS011;67251;50.844;7.978;2023-05-14T07:40:12;4.75;;;2.30;;
77876;SDS011;67251;50.844;7.978;2023-05-14T07:42:37;4.18;;;2.25;;
77876;SDS011;67251;50.844;7.978;2023-05-14T07:45:03;4.82;;;2.30;;
77876;SDS011;67251;50.844;7.978;2023-05-14T07:47:29;4.55;;;2.40;;
77876;SDS011;67251;50.844;7.978;2023-05-14T07:49:58;4.30;;;2.30;;
77876;SDS011;67251;50.844;7.978;2023-05-14T07:52:23;4.63;;;2.17;;
77876;SDS011;67251;50.844;7.978;2023-05-14T07:54:49;3.90;;;1.90;;
77876;SDS011;67251;50.844;7.978;2023-05-14T07:57:15;4.68;;;2.35;;
77876;SDS011;67251;50.844;7.978;2023-05-14T07:59:40;5.63;;;2.45;;
77876;SDS011;67251;50.844;7.978;2023-05-14T08:02:06;4.88;;;2.20;;
77876;SDS011;67251;50.844;7.978;2023-05-14T08:04:34;5.03;;;2.10;;
77876;SDS011;67251;50.844;7.978;2023-05-14T08:06:59;4.40;;;2.30;;
77876;SDS011;67251;50.844;7.978;2023-05-14T08:09:25;4.97;;;2.30;;
77876;SDS011;67251;50.844;7.978;2023-05-14T08:11:50;4.85;;;2.38;;
77876;SDS011;67251;50.844;7.978;2023-05-14T08:14:16;4.25;;;2.17;;
77876;SDS011;67251;50.844;7.978;2023-05-14T08:16:41;4.20;;;2.20;;
77876;SDS011;67251;50.844;7.978;2023-05-14T08:19:06;4.47;;;1.88;;
77876;SDS011;67251;50.844;7.978;2023-05-14T08:21:32;3.97;;;2.13;;
77876;SDS011;67251;50.844;7.978;2023-05-14T08:23:57;3.67;;;2.05;;
77876;SDS011;67251;50.844;7.978;2023-05-14T08:26:23;4.07;;;1.92;;
77876;SDS011;67251;50.844;7.978;2023-05-14T08:28:48;4.28;;;2.15;;
77876;SDS011;67251;50.844;7.978;2023-05-14T08:31:13;3.92;;;2.13;;
77876;SDS011;67251;50.844;7.978;2023-05-14T08:33:39;3.85;;;2.08;;
77876;SDS011;67251;50.844;7.978;2023-05-14T08:36:05;4.60;;;2.20;;
77876;SDS011;67251;50.844;7.978;2023-05-14T08:38:31;3.78;;;2.10;;
77876;SDS011;67251;50.844;7.978;2023-05-14T08:40:57;3.85;;;2.08;;
77876;SDS011;67251;50.844;7.978;2023-05-14T08:43:29;4.05;;;2.10;;
77876;SDS011;67251;50.844;7.978;2023-05-14T08:46:16;4.00;;;2.20;;
77876;SDS011;67251;50.844;7.978;2023-05-14T08:48:45;4.72;;;2.38;;
77876;SDS011;67251;50.844;7.978;2023-05-14T08:51:17;3.72;;;2.10;;
77876;SDS011;67251;50.844;7.978;2023-05-14T08:53:43;4.07;;;2.13;;
77876;SDS011;67251;50.844;7.978;2023-05-14T08:56:08;4.70;;;2.10;;
77876;SDS011;67251;50.844;7.978;2023-05-14T08:58:34;4.32;;;2.35;;
77876;SDS011;67251;50.844;7.978;2023-05-14T09:01:01;4.63;;;2.00;;
77876;SDS011;67251;50.844;7.978;2023-05-14T09:03:26;4.93;;;2.30;;
77876;SDS011;67251;50.844;7.978;2023-05-14T09:05:53;4.32;;;2.28;;
77876;SDS011;67251;50.844;7.978;2023-05-14T09:08:20;4.20;;;2.20;;
77876;SDS011;67251;50.844;7.978;2023-05-14T09:10:46;3.90;;;1.98;;
77876;SDS011;67251;50.844;7.978;2023-05-14T09:13:11;3.92;;;2.00;;
77876;SDS011;67251;50.844;7.978;2023-05-14T09:15:37;4.45;;;1.90;;
77876;SDS011;67251;50.844;7.978;2023-05-14T09:18:05;5.70;;;2.08;;
77876;SDS011;67251;50.844;7.978;2023-05-14T09:20:31;4.50;;;2.20;;
77876;SDS011;67251;50.844;7.978;2023-05-14T09:23:00;3.97;;;1.95;;
77876;SDS011;67251;50.844;7.978;2023-05-14T09:27:52;3.65;;;2.10;;
77876;SDS011;67251;50.844;7.978;2023-05-14T09:30:18;3.72;;;1.83;;
77876;SDS011;67251;50.844;7.978;2023-05-14T09:32:44;4.38;;;1.90;;
77876;SDS011;67251;50.844;7.978;2023-05-14T09:35:20;4.18;;;1.75;;
77876;SDS011;67251;50.844;7.978;2023-05-14T09:37:49;5.65;;;1.73;;
77876;SDS011;67251;50.844;7.978;2023-05-14T09:40:16;4.03;;;1.85;;
77876;SDS011;67251;50.844;7.978;2023-05-14T09:42:43;4.57;;;1.90;;
77876;SDS011;67251;50.844;7.978;2023-05-14T09:45:09;3.50;;;1.70;;
77876;SDS011;67251;50.844;7.978;2023-05-14T09:47:35;3.60;;;1.60;;
77876;SDS011;67251;50.844;7.978;2023-05-14T09:50:01;3.80;;;1.65;;
77876;SDS011;67251;50.844;7.978;2023-05-14T09:52:27;3.67;;;1.63;;
77876;SDS011;67251;50.844;7.978;2023-05-14T09:54:53;4.63;;;1.70;;
77876;SDS011;67251;50.844;7.978;2023-05-14T09:57:19;4.68;;;1.60;;
77876;SDS011;67251;50.844;7.978;2023-05-14T09:59:44;3.47;;;1.70;;
77876;SDS011;67251;50.844;7.978;2023-05-14T10:02:15;2.92;;;1.27;;
77876;SDS011;67251;50.844;7.978;2023-05-14T10:04:47;3.58;;;1.65;;
77876;SDS011;67251;50.844;7.978;2023-05-14T10:07:14;3.70;;;1.85;;
77876;SDS011;67251;50.844;7.978;2023-05-14T10:12:09;4.03;;;1.40;;
77876;SDS011;67251;50.844;7.978;2023-05-14T10:14:37;4.20;;;1.55;;
77876;SDS011;67251;50.844;7.978;2023-05-14T10:17:07;3.33;;;1.33;;
77876;SDS011;67251;50.844;7.978;2023-05-14T10:22:10;2.88;;;1.30;;
77876;SDS011;67251;50.844;7.978;2023-05-14T10:24:36;3.65;;;1.60;;
77876;SDS011;67251;50.844;7.978;2023-05-14T10:27:03;4.07;;;1.50;;
77876;SDS011;67251;50.844;7.978;2023-05-14T10:29:35;3.30;;;1.42;;
77876;SDS011;67251;50.844;7.978;2023-05-14T10:32:05;3.00;;;1.38;;
77876;SDS011;67251;50.844;7.978;2023-05-14T10:34:36;3.75;;;1.65;;
77876;SDS011;67251;50.844;7.978;2023-05-14T10:37:38;4.50;;;1.70;;
77876;SDS011;67251;50.844;7.978;2023-05-14T10:39:57;3.28;;;1.70;;
77876;SDS011;67251;50.844;7.978;2023-05-14T10:42:24;4.03;;;1.60;;
77876;SDS011;67251;50.844;7.978;2023-05-14T10:44:55;4.43;;;1.63;;
77876;SDS011;67251;50.844;7.978;2023-05-14T10:47:39;3.22;;;1.33;;
77876;SDS011;67251;50.844;7.978;2023-05-14T10:50:08;3.67;;;1.38;;
77876;SDS011;67251;50.844;7.978;2023-05-14T10:52:35;3.85;;;1.70;;
77876;SDS011;67251;50.844;7.978;2023-05-14T10:55:02;3.03;;;1.40;;
77876;SDS011;67251;50.844;7.978;2023-05-14T10:57:31;3.03;;;1.33;;
77876;SDS011;67251;50.844;7.978;2023-05-14T11:00:00;3.70;;;1.50;;
77876;SDS011;67251;50.844;7.978;2023-05-14T11:02:30;4.18;;;1.60;;
77876;SDS011;67251;50.844;7.978;2023-05-14T11:05:05;3.42;;;1.40;;
77876;SDS011;67251;50.844;7.978;2023-05-14T11:07:38;3.72;;;1.48;;
77876;SDS011;67251;50.844;7.978;2023-05-14T11:10:09;4.13;;;1.50;;
77876;SDS011;67251;50.844;7.978;2023-05-14T11:12:38;2.97;;;1.40;;
77876;SDS011;67251;50.844;7.978;2023-05-14T11:15:11;3.70;;;1.30;;
77876;SDS011;67251;50.844;7.978;2023-05-14T11:17:39;3.95;;;1.52;;
77876;SDS011;67251;50.844;7.978;2023-05-14T11:20:05;3.55;;;1.38;;
77876;SDS011;67251;50.844;7.978;2023-05-14T11:22:32;3.63;;;1.38;;
77876;SDS011;67251;50.844;7.978;2023-05-14T11:25:01;3.88;;;1.50;;
77876;SDS011;67251;50.844;7.978;2023-05-14T11:27:27;2.97;;;1.30;;
77876;SDS011;67251;50.844;7.978;2023-05-14T11:29:53;3.08;;;1.30;;
77876;SDS011;67251;50.844;7.978;2023-05-14T11:32:19;3.50;;;2.03;;
77876;SDS011;67251;50.844;7.978;2023-05-14T11:34:45;3.20;;;1.38;;
77876;SDS011;67251;50.844;7.978;2023-05-14T11:37:12;3.25;;;1.30;;
77876;SDS011;67251;50.844;7.978;2023-05-14T11:39:42;3.03;;;1.10;;
77876;SDS011;67251;50.844;7.978;2023-05-14T11:42:11;3.95;;;1.60;;
77876;SDS011;67251;50.844;7.978;2023-05-14T11:44:38;3.85;;;1.48;;
77876;SDS011;67251;50.844;7.978;2023-05-14T11:47:04;3.42;;;1.30;;
77876;SDS011;67251;50.844;7.978;2023-05-14T11:49:30;3.20;;;1.00;;
77876;SDS011;67251;50.844;7.978;2023-05-14T11:51:56;3.10;;;1.20;;
77876;SDS011;67251;50.844;7.978;2023-05-14T11:54:28;4.00;;;1.30;;
77876;SDS011;67251;50.844;7.978;2023-05-14T11:56:55;3.30;;;1.23;;
77876;SDS011;67251;50.844;7.978;2023-05-14T11:59:24;3.25;;;1.30;;
77876;SDS011;67251;50.844;7.978;2023-05-14T12:01:51;3.30;;;1.30;;
77876;SDS011;67251;50.844;7.978;2023-05-14T12:04:18;3.25;;;1.15;;
77876;SDS011;67251;50.844;7.978;2023-05-14T12:06:46;2.90;;;1.13;;
77876;SDS011;67251;50.844;7.978;2023-05-14T12:09:13;2.70;;;1.10;;
77876;SDS011;67251;50.844;7.978;2023-05-14T12:11:40;3.00;;;1.05;;
77876;SDS011;67251;50.844;7.978;2023-05-14T12:14:09;2.85;;;1.08;;
77876;SDS011;67251;50.844;7.978;2023-05-14T12:16:36;3.45;;;1.33;;
77876;SDS011;67251;50.844;7.978;2023-05-14T12:19:04;3.15;;;1.00;;
77876;SDS011;67251;50.844;7.978;2023-05-14T12:21:29;2.90;;;1.05;;
77876;SDS011;67251;50.844;7.978;2023-05-14T12:23:58;4.10;;;1.10;;
77876;SDS011;67251;50.844;7.978;2023-05-14T12:28:55;3.22;;;0.98;;
77876;SDS011;67251;50.844;7.978;2023-05-14T12:31:28;2.40;;;0.85;;
77876;SDS011;67251;50.844;7.978;2023-05-14T12:33:56;2.25;;;0.70;;
77876;SDS011;67251;50.844;7.978;2023-05-14T12:36:22;2.72;;;0.90;;
77876;SDS011;67251;50.844;7.978;2023-05-14T12:38:48;2.50;;;1.00;;
77876;SDS011;67251;50.844;7.978;2023-05-14T12:41:15;3.97;;;0.95;;
77876;SDS011;67251;50.844;7.978;2023-05-14T12:43:42;2.22;;;0.95;;
77876;SDS011;67251;50.844;7.978;2023-05-14T12:46:08;3.17;;;1.25;;
77876;SDS011;67251;50.844;7.978;2023-05-14T12:48:33;3.15;;;1.15;;
77876;SDS011;67251;50.844;7.978;2023-05-14T12:50:59;3.28;;;1.17;;
77876;SDS011;67251;50.844;7.978;2023-05-14T12:53:24;2.90;;;1.10;;
77876;SDS011;67251;50.844;7.978;2023-05-14T12:55:50;3.60;;;1.40;;
77876;SDS011;67251;50.844;7.978;2023-05-14T12:58:15;3.15;;;1.15;;
77876;SDS011;67251;50.844;7.978;2023-05-14T13:00:41;3.20;;;1.02;;
77876;SDS011;67251;50.844;7.978;2023-05-14T13:03:06;2.83;;;1.15;;
77876;SDS011;67251;50.844;7.978;2023-05-14T13:05:31;3.17;;;1.10;;
77876;SDS011;67251;50.844;7.978;2023-05-14T13:07:57;2.72;;;1.17;;
77876;SDS011;67251;50.844;7.978;2023-05-14T13:10:24;2.60;;;1.17;;
77876;SDS011;67251;50.844;7.978;2023-05-14T13:12:49;2.00;;;0.85;;
77876;SDS011;67251;50.844;7.978;2023-05-14T13:15:16;2.08;;;0.70;;
77876;SDS011;67251;50.844;7.978;2023-05-14T13:17:42;1.98;;;0.80;;
77876;SDS011;67251;50.844;7.978;2023-05-14T13:20:07;2.20;;;0.80;;
77876;SDS011;67251;50.844;7.978;2023-05-14T13:22:33;1.95;;;0.65;;
77876;SDS011;67251;50.844;7.978;2023-05-14T13:24:58;3.25;;;0.93;;
77876;SDS011;67251;50.844;7.978;2023-05-14T13:27:24;2.45;;;0.90;;
77876;SDS011;67251;50.844;7.978;2023-05-14T13:29:49;2.63;;;0.90;;
77876;SDS011;67251;50.844;7.978;2023-05-14T13:32:15;2.38;;;0.95;;
77876;SDS011;67251;50.844;7.978;2023-05-14T13:34:40;2.67;;;0.90;;
77876;SDS011;67251;50.844;7.978;2023-05-14T13:37:08;3.63;;;1.00;;
77876;SDS011;67251;50.844;7.978;2023-05-14T13:39:33;2.72;;;1.00;;
77876;SDS011;67251;50.844;7.978;2023-05-14T13:41:58;3.65;;;1.00;;
77876;SDS011;67251;50.844;7.978;2023-05-14T13:44:25;3.38;;;1.00;;
77876;SDS011;67251;50.844;7.978;2023-05-14T13:46:51;3.08;;;1.17;;
77876;SDS011;67251;50.844;7.978;2023-05-14T13:49:16;2.67;;;1.08;;
77876;SDS011;67251;50.844;7.978;2023-05-14T13:51:42;2.85;;;1.02;;
77876;SDS011;67251;50.844;7.978;2023-05-14T13:54:07;3.83;;;1.02;;
77876;SDS011;67251;50.844;7.978;2023-05-14T13:56:32;2.95;;;1.20;;
77876;SDS011;67251;50.844;7.978;2023-05-14T13:58:58;2.92;;;1.20;;
77876;SDS011;67251;50.844;7.978;2023-05-14T14:01:23;2.58;;;1.00;;
77876;SDS011;67251;50.844;7.978;2023-05-14T14:03:49;2.42;;;0.95;;
77876;SDS011;67251;50.844;7.978;2023-05-14T14:06:15;2.30;;;0.80;;
77876;SDS011;67251;50.844;7.978;2023-05-14T14:08:40;3.33;;;1.00;;
77876;SDS011;67251;50.844;7.978;2023-05-14T14:11:05;3.10;;;1.17;;
77876;SDS011;67251;50.844;7.978;2023-05-14T14:13:31;3.40;;;1.23;;
77876;SDS011;67251;50.844;7.978;2023-05-14T14:15:56;2.28;;;0.90;;
77876;SDS011;67251;50.844;7.978;2023-05-14T14:18:21;2.80;;;1.15;;
77876;SDS011;67251;50.844;7.978;2023-05-14T14:20:47;3.45;;;1.00;;
77876;SDS011;67251;50.844;7.978;2023-05-14T14:23:12;3.38;;;1.15;;
77876;SDS011;67251;50.844;7.978;2023-05-14T14:25:37;2.80;;;1.00;;
77876;SDS011;67251;50.844;7.978;2023-05-14T14:28:03;2.47;;;1.00;;
77876;SDS011;67251;50.844;7.978;2023-05-14T14:30:28;2.15;;;0.85;;
77876;SDS011;67251;50.844;7.978;2023-05-14T14:32:54;1.95;;;0.73;;
77876;SDS011;67251;50.844;7.978;2023-05-14T14:35:19;2.50;;;0.80;;
77876;SDS011;67251;50.844;7.978;2023-05-14T14:37:45;2.70;;;0.90;;
77876;SDS011;67251;50.844;7.978;2023-05-14T14:40:14;1.75;;;0.65;;
77876;SDS011;67251;50.844;7.978;2023-05-14T14:42:41;1.92;;;0.70;;
77876;SDS011;67251;50.844;7.978;2023-05-14T14:45:07;2.17;;;0.80;;
77876;SDS011;67251;50.844;7.978;2023-05-14T14:47:33;1.67;;;0.60;;
77876;SDS011;67251;50.844;7.978;2023-05-14T14:49:59;1.95;;;0.63;;
77876;SDS011;67251;50.844;7.978;2023-05-14T14:52:25;2.33;;;0.80;;
77876;SDS011;67251;50.844;7.978;2023-05-14T14:54:51;3.33;;;1.40;;
77876;SDS011;67251;50.844;7.978;2023-05-14T14:57:16;2.92;;;1.10;;
77876;SDS011;67251;50.844;7.978;2023-05-14T14:59:41;2.50;;;0.98;;